Time;durP1;ratioP1;P1;durP2;ratioP2;P2;SDS_P1;SDS_P2;PMS_P1;PMS_P2;Temp;Humidity;BMP_temperature;BMP_pressure;BME280_temperature;BME280_humidity;BME280_pressure;Samples;Min_cycle;Max_cycle;Signal;HPM_P1;HPM_P2
2022/03/02 00:01:38;;;;;;;9.45;5.13;;;8.80;64.00;;;;;;5043271;28;20474;-87
2022/03/02 00:04:04;;;;;;;9.60;5.22;;;8.80;64.20;;;;;;5056429;28;20055;-87
2022/03/02 00:06:30;;;;;;;8.37;5.10;;;8.80;64.30;;;;;;5048976;28;20044;-86
2022/03/02 00:08:55;;;;;;;9.27;5.18;;;8.80;64.30;;;;;;5048516;28;20305;-87
2022/03/02 00:11:21;;;;;;;8.77;5.03;;;8.80;64.40;;;;;;5029744;28;20068;-87
2022/03/02 00:13:47;;;;;;;9.32;4.85;;;8.80;64.50;;;;;;5043311;28;20066;-87
2022/03/02 00:16:13;;;;;;;9.90;4.87;;;8.70;64.50;;;;;;5028514;28;20027;-87
2022/03/02 00:18:39;;;;;;;8.30;4.87;;;8.70;64.60;;;;;;5035065;28;20274;-87
2022/03/02 00:21:05;;;;;;;9.32;5.00;;;8.70;64.70;;;;;;5036344;28;20130;-86
2022/03/02 00:23:31;;;;;;;10.00;5.28;;;8.70;64.70;;;;;;5034663;28;20357;-87
2022/03/02 00:25:57;;;;;;;8.20;4.90;;;8.70;64.80;;;;;;5050934;28;20024;-86
2022/03/02 00:28:23;;;;;;;8.77;4.87;;;8.80;64.80;;;;;;5065299;28;20474;-86
2022/03/02 00:30:49;;;;;;;9.88;5.10;;;8.70;64.70;;;;;;5023000;28;20025;-86
2022/03/02 00:33:15;;;;;;;8.65;5.03;;;8.70;64.70;;;;;;5086804;28;20032;-86
2022/03/02 00:35:41;;;;;;;8.25;5.20;;;8.70;64.80;;;;;;5036987;28;20024;-86
2022/03/02 00:38:10;;;;;;;9.40;5.20;;;8.70;64.80;;;;;;5028498;28;20031;-86
2022/03/02 00:40:36;;;;;;;8.98;4.90;;;8.70;64.90;;;;;;5039259;28;20029;-86
2022/03/02 00:43:02;;;;;;;9.05;5.10;;;8.70;65.00;;;;;;5031320;28;20240;-87
2022/03/02 00:45:28;;;;;;;10.05;5.53;;;8.70;65.00;;;;;;5050922;28;20028;-87
2022/03/02 00:47:53;;;;;;;9.33;4.57;;;8.60;65.00;;;;;;5037770;28;20700;-87
2022/03/02 00:50:19;;;;;;;9.70;5.07;;;8.60;65.10;;;;;;5057288;28;20446;-87
2022/03/02 00:52:46;;;;;;;8.07;5.05;;;8.60;65.00;;;;;;5032587;28;20036;-87
2022/03/02 00:55:12;;;;;;;8.43;4.95;;;8.60;65.20;;;;;;5035432;28;20155;-87
2022/03/02 00:57:38;;;;;;;8.27;4.80;;;8.50;65.10;;;;;;5034688;28;20036;-87
2022/03/02 01:00:06;;;;;;;10.05;5.35;;;8.50;65.10;;;;;;5066252;28;20163;-87
2022/03/02 01:02:32;;;;;;;8.45;5.00;;;8.50;65.20;;;;;;5028966;28;20028;-87
2022/03/02 01:04:57;;;;;;;8.83;5.00;;;8.50;65.30;;;;;;5035201;28;20237;-87
2022/03/02 01:07:23;;;;;;;8.77;5.15;;;8.50;65.30;;;;;;5053629;28;20033;-87
2022/03/02 01:09:49;;;;;;;8.30;4.27;;;8.50;65.40;;;;;;5044255;28;20080;-87
2022/03/02 01:12:14;;;;;;;7.72;4.80;;;8.50;65.50;;;;;;5048662;28;20028;-86
2022/03/02 01:14:40;;;;;;;9.27;4.83;;;8.40;65.40;;;;;;5027356;28;20119;-86
2022/03/02 01:17:06;;;;;;;8.38;5.13;;;8.40;65.50;;;;;;5041915;28;20574;-86
2022/03/02 01:19:32;;;;;;;8.80;5.20;;;8.40;65.70;;;;;;5029799;28;20028;-86
2022/03/02 01:21:57;;;;;;;9.00;5.03;;;8.50;65.80;;;;;;5058237;28;20094;-86
2022/03/02 01:24:23;;;;;;;9.00;5.17;;;8.40;65.80;;;;;;5021633;28;20021;-87
2022/03/02 01:26:49;;;;;;;8.77;4.95;;;8.40;65.80;;;;;;5053335;28;20028;-87
2022/03/02 01:29:14;;;;;;;8.97;4.77;;;8.40;65.80;;;;;;5049159;28;20071;-87
2022/03/02 01:31:40;;;;;;;8.50;5.18;;;8.40;65.80;;;;;;5045334;28;20024;-87
2022/03/02 01:34:06;;;;;;;10.35;5.53;;;8.40;65.80;;;;;;5047593;28;20115;-87
2022/03/02 01:36:32;;;;;;;9.27;5.20;;;8.40;65.80;;;;;;5027668;28;20024;-86
2022/03/02 01:38:57;;;;;;;8.80;5.03;;;8.40;65.80;;;;;;5071127;28;20473;-86
2022/03/02 01:41:25;;;;;;;10.45;5.55;;;8.40;65.90;;;;;;5030802;28;20114;-87
2022/03/02 01:43:52;;;;;;;9.30;5.32;;;8.40;65.90;;;;;;5057945;28;20035;-87
2022/03/02 01:46:18;;;;;;;9.15;5.50;;;8.40;65.90;;;;;;5051167;28;20020;-87
2022/03/02 01:48:45;;;;;;;8.23;4.53;;;8.40;65.90;;;;;;5027292;28;20579;-87
2022/03/02 01:51:11;;;;;;;9.52;5.38;;;8.40;65.90;;;;;;5037803;28;20499;-87
2022/03/02 01:53:37;;;;;;;9.38;5.25;;;8.40;65.90;;;;;;5025518;28;20024;-87
2022/03/02 01:56:03;;;;;;;9.98;5.13;;;8.40;65.90;;;;;;5045112;28;20213;-87
2022/03/02 01:58:30;;;;;;;10.20;5.47;;;8.30;65.90;;;;;;5047449;28;20036;-87
2022/03/02 02:00:57;;;;;;;8.85;5.53;;;8.30;65.90;;;;;;5042081;28;20241;-87
2022/03/02 02:03:23;;;;;;;10.93;5.10;;;8.30;65.90;;;;;;5059629;28;20409;-87
2022/03/02 02:05:49;;;;;;;8.82;4.97;;;8.30;65.90;;;;;;5027775;28;20021;-87
2022/03/02 02:08:15;;;;;;;8.90;4.60;;;8.30;65.90;;;;;;5027852;28;20035;-87
2022/03/02 02:10:41;;;;;;;10.18;5.20;;;8.30;66.10;;;;;;5053702;28;20072;-87
2022/03/02 02:13:06;;;;;;;10.30;5.05;;;8.30;66.10;;;;;;5030512;28;20343;-87
2022/03/02 02:15:32;;;;;;;9.70;5.23;;;8.30;66.10;;;;;;5032372;28;20120;-87
2022/03/02 02:17:58;;;;;;;10.68;5.25;;;8.30;66.10;;;;;;5021956;28;20126;-87
2022/03/02 02:20:25;;;;;;;10.33;5.10;;;8.30;66.00;;;;;;5027989;28;20029;-87
2022/03/02 02:22:51;;;;;;;9.10;5.45;;;8.20;66.10;;;;;;5026433;28;20205;-87
2022/03/02 02:25:17;;;;;;;8.13;4.50;;;8.20;66.00;;;;;;5049863;28;20048;-87
2022/03/02 02:27:44;;;;;;;8.15;4.63;;;8.20;66.00;;;;;;5020981;28;20118;-87
2022/03/02 02:30:12;;;;;;;8.27;4.90;;;8.20;66.00;;;;;;5028157;28;20507;-87
2022/03/02 02:32:38;;;;;;;8.93;4.72;;;8.10;66.00;;;;;;5048077;28;20115;-87
2022/03/02 02:35:06;;;;;;;7.82;4.80;;;8.20;66.00;;;;;;5029360;28;20177;-87
2022/03/02 02:37:34;;;;;;;8.77;4.90;;;8.10;66.00;;;;;;5045272;28;20036;-87
2022/03/02 02:40:03;;;;;;;8.90;5.13;;;8.10;66.00;;;;;;5027101;28;20230;-87
2022/03/02 02:42:29;;;;;;;8.40;4.50;;;8.10;66.00;;;;;;5019766;28;20553;-87
2022/03/02 02:44:57;;;;;;;8.88;4.65;;;8.00;65.90;;;;;;5045681;28;20256;-87
2022/03/02 02:47:22;;;;;;;9.75;4.65;;;8.00;66.00;;;;;;5041852;28;20036;-87
2022/03/02 02:49:48;;;;;;;8.43;4.50;;;8.00;66.10;;;;;;5052192;28;20025;-87
2022/03/02 02:52:14;;;;;;;8.52;4.63;;;8.00;66.00;;;;;;5061325;28;20035;-87
2022/03/02 02:54:43;;;;;;;7.93;4.90;;;7.90;66.00;;;;;;5048792;28;20068;-87
2022/03/02 02:57:09;;;;;;;8.25;5.03;;;8.00;66.20;;;;;;5042888;28;20089;-87
2022/03/02 02:59:35;;;;;;;9.13;4.78;;;7.90;66.00;;;;;;5053760;28;20478;-87
2022/03/02 03:02:01;;;;;;;7.82;4.35;;;7.90;66.00;;;;;;5028270;28;20252;-87
2022/03/02 03:04:26;;;;;;;8.67;4.83;;;7.90;66.00;;;;;;5033570;28;20682;-87
2022/03/02 03:06:52;;;;;;;8.63;5.40;;;7.90;66.10;;;;;;5034353;28;20039;-87
2022/03/02 03:09:18;;;;;;;8.00;4.25;;;7.90;66.20;;;;;;5049047;28;20029;-87
2022/03/02 03:11:44;;;;;;;7.77;4.10;;;7.80;66.10;;;;;;5058844;28;20409;-87
2022/03/02 03:14:14;;;;;;;7.60;4.15;;;7.80;66.10;;;;;;5039470;28;20025;-87
2022/03/02 03:16:40;;;;;;;7.55;4.07;;;7.80;66.10;;;;;;5035697;28;20520;-87
2022/03/02 03:19:07;;;;;;;8.10;4.40;;;7.80;66.10;;;;;;5033087;28;20206;-87
2022/03/02 03:21:33;;;;;;;7.33;4.37;;;7.80;65.90;;;;;;5050490;28;20028;-87
2022/03/02 03:23:59;;;;;;;7.22;4.22;;;7.80;65.90;;;;;;5023325;28;20510;-87
2022/03/02 03:26:25;;;;;;;8.63;4.70;;;7.80;65.90;;;;;;5038714;28;20028;-87
2022/03/02 03:28:51;;;;;;;8.47;4.40;;;7.80;65.90;;;;;;5032093;28;20611;-87
2022/03/02 03:31:17;;;;;;;7.90;4.10;;;7.70;65.90;;;;;;5048868;28;20342;-87
2022/03/02 03:33:42;;;;;;;7.25;4.10;;;7.70;65.70;;;;;;5027199;28;20250;-87
2022/03/02 03:36:08;;;;;;;7.93;4.17;;;7.70;65.70;;;;;;5054062;28;20545;-87
2022/03/02 03:38:34;;;;;;;8.33;4.53;;;7.70;65.70;;;;;;5050549;28;20348;-87
2022/03/02 03:41:00;;;;;;;8.02;4.35;;;7.70;65.70;;;;;;5028455;28;20024;-87
2022/03/02 03:43:26;;;;;;;8.30;4.30;;;7.70;65.70;;;;;;5033070;28;20036;-87
2022/03/02 03:45:52;;;;;;;7.93;4.63;;;7.70;65.70;;;;;;5036709;28;20051;-87
2022/03/02 03:48:18;;;;;;;7.40;4.00;;;7.60;65.80;;;;;;5046229;28;20021;-87
2022/03/02 03:50:44;;;;;;;8.27;4.23;;;7.60;65.70;;;;;;5044446;28;20346;-87
2022/03/02 03:53:11;;;;;;;7.47;3.80;;;7.60;65.80;;;;;;5055912;28;20020;-87
2022/03/02 03:55:38;;;;;;;7.45;4.32;;;7.60;65.80;;;;;;5045047;28;20393;-87
2022/03/02 03:58:05;;;;;;;8.00;4.25;;;7.60;65.80;;;;;;5051620;28;20218;-87
2022/03/02 04:00:31;;;;;;;7.10;3.92;;;7.60;65.80;;;;;;5032467;28;20024;-87
2022/03/02 04:02:56;;;;;;;8.20;4.20;;;7.60;65.80;;;;;;5051673;28;20126;-87
2022/03/02 04:05:22;;;;;;;9.07;4.68;;;7.60;65.70;;;;;;5051957;28;20032;-87
2022/03/02 04:07:48;;;;;;;7.67;4.30;;;7.60;65.70;;;;;;5081993;27;20086;-87
2022/03/02 04:10:14;;;;;;;7.97;4.22;;;7.50;65.50;;;;;;5044514;28;20053;-87
2022/03/02 04:12:40;;;;;;;7.50;4.03;;;7.50;66.30;;;;;;5054019;28;20025;-87
2022/03/02 04:15:07;;;;;;;7.13;4.32;;;7.50;65.50;;;;;;5033014;28;20283;-87
2022/03/02 04:17:33;;;;;;;7.53;4.10;;;7.40;65.50;;;;;;5026789;28;20032;-87
2022/03/02 04:19:59;;;;;;;8.07;4.15;;;7.40;65.40;;;;;;5026707;28;20023;-87
2022/03/02 04:22:24;;;;;;;8.37;4.23;;;7.40;65.40;;;;;;5029822;28;20030;-87
2022/03/02 04:24:50;;;;;;;9.85;4.53;;;7.40;65.40;;;;;;5044168;28;20092;-87
2022/03/02 04:27:16;;;;;;;8.27;3.97;;;7.30;65.40;;;;;;5029443;28;20112;-87
2022/03/02 04:29:41;;;;;;;7.85;4.10;;;7.30;65.30;;;;;;5048523;28;20478;-87
2022/03/02 04:32:08;;;;;;;8.67;4.03;;;7.20;65.40;;;;;;5034612;28;20845;-87
2022/03/02 04:34:33;;;;;;;8.57;4.07;;;7.20;65.40;;;;;;5065551;28;20122;-87
2022/03/02 04:36:59;;;;;;;8.40;4.13;;;7.20;65.40;;;;;;5041837;28;20875;-87
2022/03/02 04:39:25;;;;;;;7.47;3.80;;;7.10;65.30;;;;;;5031122;28;20114;-87
2022/03/02 04:41:50;;;;;;;10.48;4.60;;;7.10;65.40;;;;;;5038657;28;20482;-87
2022/03/02 04:44:16;;;;;;;9.03;4.07;;;7.10;65.40;;;;;;5036848;28;20377;-87
2022/03/02 04:46:48;;;;;;;7.53;3.85;;;7.00;65.50;;;;;;5033786;28;20029;-87
2022/03/02 04:49:15;;;;;;;7.70;3.83;;;7.00;65.50;;;;;;5039553;28;20028;-87
2022/03/02 04:51:41;;;;;;;7.57;3.93;;;7.00;65.60;;;;;;5032993;28;20516;-87
2022/03/02 04:54:07;;;;;;;7.63;3.65;;;7.00;65.60;;;;;;5046524;28;20263;-87
2022/03/02 04:56:34;;;;;;;7.82;3.92;;;7.00;65.80;;;;;;5039114;28;20386;-87
2022/03/02 04:59:03;;;;;;;8.13;3.80;;;7.00;65.80;;;;;;5032278;28;20116;-87
2022/03/02 05:01:30;;;;;;;7.10;3.80;;;7.00;65.90;;;;;;5033496;28;20467;-87
2022/03/02 05:03:56;;;;;;;9.00;4.32;;;6.90;65.90;;;;;;5034969;28;22063;-87
2022/03/02 05:06:21;;;;;;;7.97;4.35;;;6.90;66.00;;;;;;5034633;28;20120;-87
2022/03/02 05:08:47;;;;;;;7.23;4.17;;;6.90;65.90;;;;;;5030998;28;20374;-87
2022/03/02 05:11:13;;;;;;;7.25;4.00;;;6.90;66.80;;;;;;5070172;28;20043;-87
2022/03/02 05:13:38;;;;;;;8.00;4.13;;;6.90;65.90;;;;;;5028828;28;20647;-87
2022/03/02 05:16:04;;;;;;;9.37;4.30;;;6.80;65.90;;;;;;5028361;28;20533;-87
2022/03/02 05:18:30;;;;;;;8.40;4.25;;;6.80;65.90;;;;;;5046072;28;20044;-87
2022/03/02 05:20:55;;;;;;;7.87;3.97;;;6.80;65.90;;;;;;5030081;28;20028;-87
2022/03/02 05:23:21;;;;;;;8.10;4.18;;;6.80;66.10;;;;;;5032827;28;20555;-87
2022/03/02 05:25:47;;;;;;;8.13;4.03;;;6.80;66.10;;;;;;5043051;28;20029;-87
2022/03/02 05:28:12;;;;;;;7.30;4.00;;;6.70;66.10;;;;;;5043451;28;20477;-87
2022/03/02 05:30:38;;;;;;;8.63;4.37;;;6.80;66.20;;;;;;5067020;28;20033;-87
2022/03/02 05:33:04;;;;;;;9.13;4.82;;;6.70;66.30;;;;;;5039246;28;20240;-87
2022/03/02 05:35:29;;;;;;;7.97;4.33;;;6.70;66.30;;;;;;5029089;28;20421;-87
2022/03/02 05:37:55;;;;;;;7.90;4.23;;;6.70;66.40;;;;;;5043530;28;20130;-87
2022/03/02 05:40:21;;;;;;;9.27;4.22;;;6.70;66.40;;;;;;5075926;28;20028;-87
2022/03/02 05:42:47;;;;;;;7.72;3.97;;;6.70;66.60;;;;;;5033887;28;20653;-87
2022/03/02 05:45:13;;;;;;;8.10;4.03;;;6.70;66.60;;;;;;5050873;28;20028;-87
2022/03/02 05:47:39;;;;;;;7.60;4.07;;;6.70;66.60;;;;;;5040103;28;20066;-87
2022/03/02 05:50:07;;;;;;;7.78;4.05;;;6.80;66.70;;;;;;5058001;28;20028;-87
2022/03/02 05:52:33;;;;;;;7.97;3.90;;;6.80;66.70;;;;;;5073709;27;20102;-89
2022/03/02 05:54:59;;;;;;;7.80;3.77;;;6.80;66.70;;;;;;5058310;28;20207;-89
2022/03/02 05:57:25;;;;;;;7.32;3.97;;;6.70;66.50;;;;;;5033576;28;20318;-89
2022/03/02 05:59:51;;;;;;;8.07;4.25;;;6.70;66.50;;;;;;5038650;28;20038;-89
2022/03/02 06:02:17;;;;;;;8.48;3.60;;;6.70;66.40;;;;;;5027390;28;20048;-89
2022/03/02 06:04:43;;;;;;;8.07;4.33;;;6.70;66.40;;;;;;5041456;28;20048;-89
2022/03/02 06:07:09;;;;;;;9.93;4.05;;;6.70;66.30;;;;;;5004814;28;20241;-89
2022/03/02 06:09:35;;;;;;;7.70;3.83;;;6.70;66.30;;;;;;5090533;28;20029;-89
2022/03/02 06:12:01;;;;;;;9.20;4.20;;;6.60;66.30;;;;;;5027541;28;20039;-89
2022/03/02 06:14:27;;;;;;;8.30;3.47;;;6.60;66.30;;;;;;5028040;28;20137;-89
2022/03/02 06:16:52;;;;;;;8.30;4.17;;;6.60;66.20;;;;;;5057977;28;20044;-89
2022/03/02 06:19:18;;;;;;;7.20;3.97;;;6.60;66.20;;;;;;5051284;28;20321;-89
2022/03/02 06:21:47;;;;;;;7.95;3.95;;;6.50;66.20;;;;;;5051573;28;20043;-89
2022/03/02 06:24:14;;;;;;;9.40;4.63;;;6.50;66.20;;;;;;5039479;28;20032;-89
2022/03/02 06:26:41;;;;;;;7.97;3.87;;;6.50;66.20;;;;;;5062537;28;20171;-89
2022/03/02 06:29:07;;;;;;;8.82;4.55;;;6.40;66.10;;;;;;5039224;28;20389;-89
2022/03/02 06:31:33;;;;;;;7.15;3.72;;;6.40;66.10;;;;;;5029190;28;20040;-89
2022/03/02 06:34:00;;;;;;;8.77;3.70;;;6.40;66.20;;;;;;5050142;28;20036;-89
2022/03/02 06:36:26;;;;;;;9.27;4.40;;;6.40;66.20;;;;;;5055720;28;20301;-89
2022/03/02 06:38:51;;;;;;;7.55;3.72;;;6.40;66.30;;;;;;5022096;28;20031;-89
2022/03/02 06:41:49;;;;;;;7.47;3.78;;;6.30;66.30;;;;;;5041732;28;20263;-89
2022/03/02 06:44:26;;;;;;;7.68;3.90;;;6.30;66.60;;;;;;5045760;28;20140;-89
2022/03/02 06:47:03;;;;;;;6.93;3.60;;;6.30;66.50;;;;;;5028728;28;20025;-89
2022/03/02 06:49:56;;;;;;;8.40;4.05;;;6.30;66.50;;;;;;5053180;28;20024;-89
2022/03/02 06:52:27;;;;;;;7.80;4.10;;;6.30;66.70;;;;;;5051938;28;20060;-89
2022/03/02 06:54:56;;;;;;;7.72;3.90;;;6.30;66.50;;;;;;5047001;28;20490;-89
2022/03/02 06:57:27;;;;;;;9.13;4.10;;;6.30;66.50;;;;;;5063077;28;20102;-89
2022/03/02 06:59:53;;;;;;;9.03;4.33;;;6.30;66.70;;;;;;5066172;28;20066;-89
2022/03/02 07:02:43;;;;;;;9.88;4.07;;;6.30;66.60;;;;;;5043711;28;20101;-89
2022/03/02 07:05:10;;;;;;;7.90;3.58;;;6.30;67.00;;;;;;5063360;28;20024;-89
2022/03/02 07:07:36;;;;;;;8.13;3.75;;;6.30;67.50;;;;;;5051719;28;20684;-89
2022/03/02 07:10:04;;;;;;;8.13;4.15;;;6.40;66.80;;;;;;5027871;28;20041;-89
2022/03/02 07:12:30;;;;;;;8.17;4.00;;;6.40;67.00;;;;;;5024286;28;20028;-89
2022/03/02 07:14:57;;;;;;;7.80;3.78;;;6.40;67.10;;;;;;5025002;28;20032;-89
2022/03/02 07:17:24;;;;;;;8.05;4.30;;;6.50;67.30;;;;;;5033527;28;20177;-89
2022/03/02 07:19:50;;;;;;;7.57;3.67;;;6.50;67.50;;;;;;5025192;28;20462;-89
2022/03/02 07:22:21;;;;;;;7.82;4.00;;;6.60;68.20;;;;;;5034619;28;20040;-89
2022/03/02 07:25:11;;;;;;;7.67;4.43;;;6.70;67.40;;;;;;5046373;28;20043;-89
2022/03/02 07:27:38;;;;;;;9.35;4.18;;;6.80;67.50;;;;;;5027188;28;20028;-89
2022/03/02 07:30:05;;;;;;;8.85;4.22;;;6.90;67.20;;;;;;5043458;28;20202;-89
2022/03/02 07:32:32;;;;;;;8.30;4.05;;;6.90;67.20;;;;;;5052049;28;20039;-89
2022/03/02 07:35:01;;;;;;;8.15;3.95;;;7.00;67.10;;;;;;5023285;28;20269;-89
2022/03/02 07:37:28;;;;;;;8.70;3.67;;;7.00;67.10;;;;;;5050742;28;20107;-89
2022/03/02 07:39:54;;;;;;;9.13;4.13;;;7.10;67.10;;;;;;5054156;28;20231;-89
2022/03/02 07:42:20;;;;;;;7.25;4.07;;;7.20;67.10;;;;;;5040888;28;20722;-89
2022/03/02 07:44:47;;;;;;;10.07;3.92;;;7.20;67.10;;;;;;5064031;28;20247;-89
2022/03/02 07:47:13;;;;;;;7.37;3.83;;;7.30;67.20;;;;;;5037798;28;20082;-89
2022/03/02 07:49:39;;;;;;;8.52;4.10;;;7.40;67.20;;;;;;5027340;28;20033;-89
2022/03/02 07:52:07;;;;;;;6.47;3.67;;;7.40;67.10;;;;;;5049387;28;20126;-89
2022/03/02 07:54:37;;;;;;;7.97;3.95;;;7.50;67.10;;;;;;5038993;28;20029;-89
2022/03/02 07:57:04;;;;;;;7.60;4.07;;;7.50;67.10;;;;;;5019944;28;20120;-89
2022/03/02 07:59:42;;;;;;;7.63;4.07;;;7.60;67.20;;;;;;5052654;28;20033;-89
2022/03/02 08:02:10;;;;;;;8.35;4.50;;;7.70;67.30;;;;;;5046532;28;20712;-89
2022/03/02 08:04:37;;;;;;;7.45;4.47;;;7.80;67.60;;;;;;5021241;28;20025;-89
2022/03/02 08:07:03;;;;;;;9.10;4.88;;;7.90;68.00;;;;;;5020582;28;20596;-89
2022/03/02 08:09:31;;;;;;;8.82;4.93;;;8.10;68.60;;;;;;5045840;28;20055;-89
2022/03/02 08:11:58;;;;;;;7.73;4.30;;;8.30;69.20;;;;;;5015297;28;20085;-89
2022/03/02 08:14:25;;;;;;;9.45;4.90;;;8.60;69.50;;;;;;5057569;28;20028;-89
2022/03/02 08:16:54;;;;;;;9.55;5.00;;;8.80;69.50;;;;;;5029436;28;20317;-89
2022/03/02 08:19:21;;;;;;;8.25;4.53;;;9.10;69.10;;;;;;5048552;28;20021;-89
2022/03/02 08:22:11;;;;;;;7.30;4.45;;;9.40;69.10;;;;;;5032311;28;20029;-89
2022/03/02 08:24:42;;;;;;;7.70;3.97;;;9.60;69.00;;;;;;5045812;28;20547;-89
2022/03/02 08:27:11;;;;;;;8.63;4.38;;;9.90;69.00;;;;;;5069337;28;20031;-89
2022/03/02 08:29:38;;;;;;;9.60;4.80;;;10.10;68.50;;;;;;5032205;28;20429;-89
2022/03/02 08:32:05;;;;;;;8.65;5.15;;;10.30;67.90;;;;;;5038235;28;20336;-89
2022/03/02 08:34:32;;;;;;;10.73;5.13;;;10.50;68.20;;;;;;5047841;28;20486;-87
2022/03/02 08:36:59;;;;;;;11.03;5.80;;;10.70;68.60;;;;;;5021443;28;20232;-87
2022/03/02 08:39:25;;;;;;;10.02;5.50;;;10.90;68.50;;;;;;5065768;28;20494;-87
2022/03/02 08:41:52;;;;;;;10.45;5.88;;;11.10;68.10;;;;;;5023162;28;20116;-87
2022/03/02 08:44:19;;;;;;;8.95;5.40;;;11.20;67.30;;;;;;5026939;28;20389;-87
2022/03/02 08:46:45;;;;;;;11.85;5.88;;;11.30;66.80;;;;;;5034377;28;21213;-88
2022/03/02 08:49:12;;;;;;;8.73;5.37;;;11.50;66.80;;;;;;5041649;28;20425;-87
2022/03/02 08:51:39;;;;;;;9.68;5.40;;;11.60;66.60;;;;;;5032792;28;20032;-87
2022/03/02 08:54:06;;;;;;;9.25;5.55;;;11.60;66.40;;;;;;5040662;28;20417;-87
2022/03/02 08:56:35;;;;;;;9.65;5.18;;;11.80;66.40;;;;;;5044072;28;20086;-87
2022/03/02 08:59:02;;;;;;;9.65;5.72;;;11.80;66.30;;;;;;5054666;28;20388;-87
2022/03/02 09:01:31;;;;;;;9.57;5.60;;;12.00;66.60;;;;;;5038185;28;20029;-87
2022/03/02 09:03:59;;;;;;;10.43;5.72;;;12.10;66.50;;;;;;5056508;28;20036;-87
2022/03/02 09:06:27;;;;;;;10.27;6.05;;;12.30;66.40;;;;;;5036684;28;20158;-87
2022/03/02 09:08:55;;;;;;;14.18;7.35;;;12.40;66.20;;;;;;5037683;28;20522;-87
2022/03/02 09:11:21;;;;;;;10.93;6.18;;;12.50;65.50;;;;;;5044634;28;20051;-88
2022/03/02 09:13:49;;;;;;;9.83;5.40;;;12.70;65.60;;;;;;5039182;28;20105;-87
2022/03/02 09:16:16;;;;;;;11.20;6.20;;;12.80;65.90;;;;;;5015105;28;20058;-87
2022/03/02 09:18:42;;;;;;;10.98;6.20;;;13.00;65.70;;;;;;5037107;28;20064;-87
2022/03/02 09:21:08;;;;;;;12.60;6.43;;;13.10;65.00;;;;;;5016585;28;20382;-87
2022/03/02 09:23:40;;;;;;;12.50;6.80;;;13.20;64.90;;;;;;5034180;28;20486;-87
2022/03/02 09:26:12;;;;;;;11.40;6.10;;;13.30;64.70;;;;;;5022596;28;20391;-87
2022/03/02 09:28:40;;;;;;;10.70;6.65;;;13.40;64.60;;;;;;5048785;28;20036;-87
2022/03/02 09:31:08;;;;;;;10.38;6.32;;;13.50;64.50;;;;;;5035303;28;20727;-87
2022/03/02 09:33:34;;;;;;;12.90;6.53;;;13.70;64.20;;;;;;5025041;28;20033;-87
2022/03/02 09:36:09;;;;;;;10.97;6.10;;;13.70;63.80;;;;;;5046181;28;20047;-87
2022/03/02 09:38:35;;;;;;;12.75;6.38;;;13.80;63.30;;;;;;5032639;28;20054;-87
2022/03/02 09:41:07;;;;;;;11.65;6.40;;;13.90;63.90;;;;;;5055109;28;21152;-87
2022/03/02 09:43:35;;;;;;;12.60;6.85;;;14.10;63.50;;;;;;5047418;28;20031;-87
2022/03/02 09:46:10;;;;;;;10.55;6.47;;;14.20;63.60;;;;;;5021439;28;20020;-87
2022/03/02 09:48:46;;;;;;;10.10;6.70;;;14.30;63.10;;;;;;5029720;28;20374;-87
2022/03/02 09:51:16;;;;;;;10.88;6.32;;;14.60;63.30;;;;;;5038560;28;20033;-87
2022/03/02 09:53:47;;;;;;;10.88;6.13;;;14.70;63.50;;;;;;5019937;28;20037;-87
2022/03/02 09:56:14;;;;;;;11.88;6.65;;;14.90;63.10;;;;;;5027891;28;20050;-87
2022/03/02 09:58:40;;;;;;;10.57;6.38;;;15.00;63.40;;;;;;5037022;28;20036;-87
2022/03/02 10:01:13;;;;;;;10.90;6.57;;;15.20;64.00;;;;;;5048513;28;20016;-87
2022/03/02 10:03:45;;;;;;;11.88;6.50;;;15.60;63.60;;;;;;5039830;28;20028;-88
2022/03/02 10:06:12;;;;;;;11.73;6.30;;;15.80;62.20;;;;;;5052047;28;20367;-88
2022/03/02 10:08:47;;;;;;;11.57;6.63;;;16.00;62.20;;;;;;5023776;28;20029;-88
2022/03/02 10:11:18;;;;;;;10.65;6.28;;;16.10;60.90;;;;;;5035756;28;20114;-88
2022/03/02 10:13:44;;;;;;;10.70;6.30;;;16.30;61.60;;;;;;5031597;28;20396;-88
2022/03/02 10:16:14;;;;;;;11.57;6.40;;;16.40;61.30;;;;;;5045465;28;20486;-88
2022/03/02 10:18:41;;;;;;;10.43;6.35;;;16.50;60.60;;;;;;5035917;28;20031;-88
2022/03/02 10:21:06;;;;;;;10.67;6.00;;;16.70;60.40;;;;;;5070092;28;20390;-87
2022/03/02 10:23:36;;;;;;;8.82;5.97;;;16.80;60.40;;;;;;5026092;28;20017;-87
2022/03/02 10:26:27;;;;;;;9.63;6.22;;;17.00;59.50;;;;;;5027204;28;20025;-88
2022/03/02 10:29:02;;;;;;;9.73;6.10;;;17.10;58.20;;;;;;5015715;28;20071;-87
2022/03/02 10:31:31;;;;;;;11.20;6.10;;;17.30;60.00;;;;;;5050616;28;20112;-88
2022/03/02 10:34:13;;;;;;;9.15;5.95;;;17.40;59.20;;;;;;5030604;28;20603;-87
2022/03/02 10:36:42;;;;;;;9.27;5.40;;;17.60;58.60;;;;;;5017081;28;20024;-88
2022/03/02 10:39:10;;;;;;;10.30;6.60;;;17.90;59.60;;;;;;5035517;28;20549;-87
2022/03/02 10:41:39;;;;;;;9.93;5.93;;;18.00;58.50;;;;;;5041578;28;20090;-88
2022/03/02 10:44:38;;;;;;;10.23;6.13;;;18.20;58.30;;;;;;5028115;28;20470;-88
2022/03/02 10:47:10;;;;;;;10.45;6.50;;;18.40;55.90;;;;;;5025727;28;20070;-88
2022/03/02 10:49:37;;;;;;;9.25;5.93;;;18.60;58.10;;;;;;5014325;28;20090;-88
2022/03/02 10:52:05;;;;;;;7.85;5.10;;;18.80;58.40;;;;;;5052806;28;20021;-87
2022/03/02 10:54:31;;;;;;;10.05;6.07;;;19.10;58.20;;;;;;5038821;28;20538;-88
2022/03/02 10:57:01;;;;;;;9.80;6.27;;;19.30;57.30;;;;;;5034240;28;20161;-87
2022/03/02 10:59:31;;;;;;;10.57;6.30;;;19.50;56.10;;;;;;5045662;28;20111;-88
2022/03/02 11:01:59;;;;;;;8.80;5.88;;;19.80;55.40;;;;;;5030019;28;20067;-87
2022/03/02 11:04:24;;;;;;;9.07;5.88;;;20.00;56.50;;;;;;5012568;28;20518;-88
2022/03/02 11:06:53;;;;;;;10.18;6.35;;;20.20;56.50;;;;;;5043430;28;20035;-88
2022/03/02 11:09:20;;;;;;;9.00;6.00;;;20.50;55.20;;;;;;5046418;28;20050;-87
2022/03/02 11:11:47;;;;;;;9.20;6.05;;;20.80;55.70;;;;;;5025722;28;20063;-88
2022/03/02 11:14:13;;;;;;;8.90;5.78;;;21.00;54.70;;;;;;5046835;28;20029;-88
2022/03/02 11:16:39;;;;;;;8.65;6.32;;;21.20;53.00;;;;;;5044061;28;20044;-87
2022/03/02 11:19:14;;;;;;;9.00;6.13;;;21.30;53.30;;;;;;5049814;28;20099;-87
2022/03/02 11:21:42;;;;;;;8.93;5.73;;;21.50;51.70;;;;;;5036351;28;20317;-87
2022/03/02 11:24:09;;;;;;;9.48;5.70;;;21.60;51.90;;;;;;5029150;28;20310;-88
2022/03/02 11:26:40;;;;;;;7.63;5.60;;;21.80;52.10;;;;;;5034867;28;20415;-87
2022/03/02 11:29:17;;;;;;;8.32;5.90;;;22.00;50.60;;;;;;5027140;28;20017;-88
2022/03/02 11:31:50;;;;;;;7.70;5.10;;;22.20;48.30;;;;;;5055903;28;20533;-88
2022/03/02 11:34:21;;;;;;;9.60;6.13;;;22.40;50.50;;;;;;5014902;28;20590;-87
2022/03/02 11:36:50;;;;;;;7.88;5.57;;;22.60;48.60;;;;;;5040006;28;20035;-88
2022/03/02 11:39:19;;;;;;;8.52;5.70;;;22.60;48.10;;;;;;5048167;28;20103;-87
2022/03/02 11:41:46;;;;;;;6.70;5.00;;;22.60;47.20;;;;;;5028210;28;20478;-87
2022/03/02 11:44:26;;;;;;;6.60;4.70;;;22.70;47.70;;;;;;5045950;28;20277;-88
2022/03/02 11:46:52;;;;;;;9.37;5.40;;;22.80;46.50;;;;;;5069403;28;20486;-87
2022/03/02 11:49:17;;;;;;;7.90;4.90;;;22.90;46.00;;;;;;5055036;28;20715;-87
2022/03/02 11:51:43;;;;;;;7.15;4.45;;;22.90;45.70;;;;;;5023781;28;20116;-88
2022/03/02 11:54:10;;;;;;;6.67;4.63;;;22.90;45.30;;;;;;5042579;28;20228;-87
2022/03/02 11:56:36;;;;;;;7.32;4.63;;;22.90;44.40;;;;;;5033382;28;20027;-86
2022/03/02 11:59:08;;;;;;;5.60;4.15;;;22.80;43.40;;;;;;5025368;28;20021;-87
2022/03/02 12:01:50;;;;;;;6.07;4.50;;;22.80;43.00;;;;;;5050442;28;20021;-87
2022/03/02 12:04:17;;;;;;;7.60;4.53;;;22.70;42.20;;;;;;5031951;28;20234;-88
2022/03/02 12:06:46;;;;;;;6.18;4.25;;;22.70;42.00;;;;;;5022618;28;20128;-87
2022/03/02 12:09:25;;;;;;;7.28;5.05;;;22.60;42.00;;;;;;5052462;28;20358;-87
2022/03/02 12:11:50;;;;;;;8.80;4.80;;;22.60;41.30;;;;;;5028263;28;20158;-87
2022/03/02 12:14:16;;;;;;;6.83;4.67;;;22.60;42.10;;;;;;5057726;28;20082;-87
2022/03/02 12:16:49;;;;;;;7.30;4.93;;;22.60;41.70;;;;;;5033454;28;20270;-88
2022/03/02 12:19:30;;;;;;;6.22;4.20;;;22.70;41.10;;;;;;5055087;28;20029;-87
2022/03/02 12:22:05;;;;;;;7.57;4.20;;;22.80;41.10;;;;;;5023818;28;20017;-87
2022/03/02 12:24:33;;;;;;;5.50;3.83;;;22.90;41.40;;;;;;5027129;28;20037;-88
2022/03/02 12:27:08;;;;;;;5.93;4.15;;;23.00;42.30;;;;;;5036696;28;20048;-87
2022/03/02 12:29:36;;;;;;;7.80;4.90;;;23.20;40.70;;;;;;5042805;28;20025;-87
2022/03/02 12:32:16;;;;;;;5.47;4.18;;;23.40;40.60;;;;;;5027493;28;20119;-87
2022/03/02 12:34:48;;;;;;;6.00;4.27;;;23.40;39.80;;;;;;5040185;28;20196;-87
2022/03/02 12:37:16;;;;;;;5.82;4.00;;;23.50;39.50;;;;;;5036422;28;20067;-87
2022/03/02 12:39:42;;;;;;;5.68;3.78;;;23.70;39.90;;;;;;5037056;28;20410;-88
2022/03/02 12:42:10;;;;;;;7.28;4.32;;;23.80;40.50;;;;;;5050992;28;20036;-87
2022/03/02 12:44:41;;;;;;;4.95;3.70;;;24.00;40.00;;;;;;5034021;28;20028;-88
2022/03/02 12:47:10;;;;;;;5.60;3.77;;;24.20;39.50;;;;;;5063815;28;20464;-88
2022/03/02 12:49:37;;;;;;;6.82;4.60;;;24.50;40.10;;;;;;5040330;28;20513;-87
2022/03/02 12:52:05;;;;;;;5.32;3.97;;;24.70;38.70;;;;;;5020579;28;20032;-87
2022/03/02 12:54:37;;;;;;;4.65;3.30;;;24.80;37.70;;;;;;5049085;28;20032;-87
2022/03/02 12:57:06;;;;;;;7.82;4.38;;;24.80;37.60;;;;;;5026297;28;20024;-87